sensor_id;sensor_type;location;lat;lon;timestamp;P1;durP1;ratioP1;P2;durP2;ratioP2
53646;SDS011;39550;52.230;5.194;2023-05-10T00:00:21;13.82;;;9.98;;
53646;SDS011;39550;52.230;5.194;2023-05-10T00:02:47;13.52;;;9.98;;
53646;SDS011;39550;52.230;5.194;2023-05-10T00:05:13;14.52;;;10.63;;
53646;SDS011;39550;52.230;5.194;2023-05-10T00:07:38;14.20;;;10.63;;
53646;SDS011;39550;52.230;5.194;2023-05-10T00:10:04;15.95;;;11.63;;
53646;SDS011;39550;52.230;5.194;2023-05-10T00:12:29;12.75;;;10.35;;
53646;SDS011;39550;52.230;5.194;2023-05-10T00:14:55;16.38;;;11.20;;
53646;SDS011;39550;52.230;5.194;2023-05-10T00:17:20;14.43;;;10.88;;
53646;SDS011;39550;52.230;5.194;2023-05-10T00:19:45;15.93;;;11.70;;
53646;SDS011;39550;52.230;5.194;2023-05-10T00:22:10;16.42;;;11.50;;
53646;SDS011;39550;52.230;5.194;2023-05-10T00:24:36;13.90;;;11.35;;
53646;SDS011;39550;52.230;5.194;2023-05-10T00:27:01;16.50;;;12.20;;
53646;SDS011;39550;52.230;5.194;2023-05-10T00:29:28;17.00;;;11.63;;
53646;SDS011;39550;52.230;5.194;2023-05-10T00:31:54;16.65;;;11.40;;
53646;SDS011;39550;52.230;5.194;2023-05-10T00:34:19;16.45;;;12.48;;
53646;SDS011;39550;52.230;5.194;2023-05-10T00:36:45;16.15;;;11.85;;
53646;SDS011;39550;52.230;5.194;2023-05-10T00:39:10;14.77;;;10.90;;
53646;SDS011;39550;52.230;5.194;2023-05-10T00:41:35;16.88;;;12.13;;
53646;SDS011;39550;52.230;5.194;2023-05-10T00:44:01;17.30;;;12.50;;
53646;SDS011;39550;52.230;5.194;2023-05-10T00:46:27;17.27;;;12.63;;
53646;SDS011;39550;52.230;5.194;2023-05-10T00:48:53;16.52;;;12.23;;
53646;SDS011;39550;52.230;5.194;2023-05-10T00:51:18;16.25;;;12.05;;
53646;SDS011;39550;52.230;5.194;2023-05-10T00:53:47;18.60;;;13.02;;
53646;SDS011;39550;52.230;5.194;2023-05-10T00:56:13;15.07;;;11.68;;
53646;SDS011;39550;52.230;5.194;2023-05-10T00:58:41;17.23;;;12.43;;
53646;SDS011;39550;52.230;5.194;2023-05-10T01:01:07;17.47;;;12.63;;
53646;SDS011;39550;52.230;5.194;2023-05-10T01:03:33;18.52;;;12.50;;
53646;SDS011;39550;52.230;5.194;2023-05-10T01:05:58;17.80;;;12.57;;
53646;SDS011;39550;52.230;5.194;2023-05-10T01:08:24;17.88;;;13.00;;
53646;SDS011;39550;52.230;5.194;2023-05-10T01:10:50;18.15;;;13.52;;
53646;SDS011;39550;52.230;5.194;2023-05-10T01:13:18;19.17;;;13.45;;
53646;SDS011;39550;52.230;5.194;2023-05-10T01:15:55;17.23;;;12.27;;
53646;SDS011;39550;52.230;5.194;2023-05-10T01:18:21;16.63;;;11.88;;
53646;SDS011;39550;52.230;5.194;2023-05-10T01:20:47;19.20;;;12.73;;
53646;SDS011;39550;52.230;5.194;2023-05-10T01:33:54;19.13;;;13.50;;
53646;SDS011;39550;52.230;5.194;2023-05-10T01:39:24;20.60;;;14.13;;
53646;SDS011;39550;52.230;5.194;2023-05-10T01:41:57;19.98;;;13.65;;
53646;SDS011;39550;52.230;5.194;2023-05-10T01:47:15;20.17;;;14.43;;
53646;SDS011;39550;52.230;5.194;2023-05-10T01:49:50;21.05;;;14.40;;
53646;SDS011;39550;52.230;5.194;2023-05-10T01:52:20;22.98;;;14.68;;
53646;SDS011;39550;52.230;5.194;2023-05-10T01:57:58;20.45;;;14.77;;
53646;SDS011;39550;52.230;5.194;2023-05-10T02:00:29;18.25;;;14.25;;
53646;SDS011;39550;52.230;5.194;2023-05-10T02:02:56;20.42;;;14.48;;
53646;SDS011;39550;52.230;5.194;2023-05-10T02:05:22;19.73;;;14.18;;
53646;SDS011;39550;52.230;5.194;2023-05-10T02:07:49;22.27;;;16.08;;
53646;SDS011;39550;52.230;5.194;2023-05-10T02:10:16;19.65;;;13.70;;
53646;SDS011;39550;52.230;5.194;2023-05-10T02:12:43;19.80;;;14.52;;
53646;SDS011;39550;52.230;5.194;2023-05-10T02:15:11;20.17;;;14.85;;
53646;SDS011;39550;52.230;5.194;2023-05-10T02:20:07;19.88;;;15.38;;
53646;SDS011;39550;52.230;5.194;2023-05-10T02:22:34;22.27;;;15.63;;
53646;SDS011;39550;52.230;5.194;2023-05-10T02:25:01;22.98;;;14.88;;
53646;SDS011;39550;52.230;5.194;2023-05-10T02:27:28;21.60;;;15.70;;
53646;SDS011;39550;52.230;5.194;2023-05-10T02:29:54;20.05;;;15.70;;
53646;SDS011;39550;52.230;5.194;2023-05-10T02:32:22;22.27;;;16.35;;
53646;SDS011;39550;52.230;5.194;2023-05-10T02:34:50;21.00;;;15.68;;
53646;SDS011;39550;52.230;5.194;2023-05-10T02:37:17;22.15;;;15.68;;
53646;SDS011;39550;52.230;5.194;2023-05-10T02:39:45;22.27;;;16.05;;
53646;SDS011;39550;52.230;5.194;2023-05-10T02:42:18;24.52;;;17.35;;
53646;SDS011;39550;52.230;5.194;2023-05-10T02:44:48;22.90;;;16.70;;
53646;SDS011;39550;52.230;5.194;2023-05-10T02:47:15;23.58;;;17.13;;
53646;SDS011;39550;52.230;5.194;2023-05-10T02:49:41;22.88;;;16.85;;
53646;SDS011;39550;52.230;5.194;2023-05-10T02:52:07;22.25;;;16.55;;
53646;SDS011;39550;52.230;5.194;2023-05-10T02:54:35;23.27;;;17.55;;
53646;SDS011;39550;52.230;5.194;2023-05-10T02:57:07;23.95;;;17.88;;
53646;SDS011;39550;52.230;5.194;2023-05-10T02:59:36;26.73;;;19.57;;
53646;SDS011;39550;52.230;5.194;2023-05-10T03:02:01;28.15;;;17.83;;
53646;SDS011;39550;52.230;5.194;2023-05-10T03:04:28;23.90;;;17.88;;
53646;SDS011;39550;52.230;5.194;2023-05-10T03:06:53;26.65;;;18.73;;
53646;SDS011;39550;52.230;5.194;2023-05-10T03:09:18;23.50;;;17.73;;
53646;SDS011;39550;52.230;5.194;2023-05-10T03:14:28;25.55;;;18.55;;
53646;SDS011;39550;52.230;5.194;2023-05-10T03:17:19;23.00;;;17.48;;
53646;SDS011;39550;52.230;5.194;2023-05-10T03:19:52;26.02;;;18.73;;
53646;SDS011;39550;52.230;5.194;2023-05-10T03:22:32;26.90;;;19.00;;
53646;SDS011;39550;52.230;5.194;2023-05-10T03:25:04;27.38;;;17.80;;
53646;SDS011;39550;52.230;5.194;2023-05-10T03:27:31;27.63;;;19.15;;
53646;SDS011;39550;52.230;5.194;2023-05-10T03:29:57;28.67;;;19.35;;
53646;SDS011;39550;52.230;5.194;2023-05-10T03:32:23;28.20;;;18.73;;
53646;SDS011;39550;52.230;5.194;2023-05-10T03:34:49;26.60;;;19.67;;
53646;SDS011;39550;52.230;5.194;2023-05-10T03:37:14;28.98;;;19.25;;
53646;SDS011;39550;52.230;5.194;2023-05-10T03:39:39;28.35;;;19.60;;
53646;SDS011;39550;52.230;5.194;2023-05-10T03:42:05;29.90;;;21.00;;
53646;SDS011;39550;52.230;5.194;2023-05-10T03:44:30;28.15;;;20.75;;
53646;SDS011;39550;52.230;5.194;2023-05-10T03:46:58;27.70;;;19.33;;
53646;SDS011;39550;52.230;5.194;2023-05-10T03:49:23;28.42;;;20.63;;
53646;SDS011;39550;52.230;5.194;2023-05-10T03:51:48;27.35;;;20.05;;
53646;SDS011;39550;52.230;5.194;2023-05-10T03:54:14;26.48;;;19.52;;
53646;SDS011;39550;52.230;5.194;2023-05-10T03:56:39;32.25;;;21.83;;
53646;SDS011;39550;52.230;5.194;2023-05-10T03:59:05;31.15;;;21.70;;
53646;SDS011;39550;52.230;5.194;2023-05-10T04:01:34;34.72;;;22.92;;
53646;SDS011;39550;52.230;5.194;2023-05-10T04:03:59;31.10;;;20.63;;
53646;SDS011;39550;52.230;5.194;2023-05-10T04:06:25;31.45;;;21.45;;
53646;SDS011;39550;52.230;5.194;2023-05-10T04:08:50;30.88;;;20.75;;
53646;SDS011;39550;52.230;5.194;2023-05-10T04:11:15;29.05;;;19.73;;
53646;SDS011;39550;52.230;5.194;2023-05-10T04:13:40;31.17;;;20.73;;
53646;SDS011;39550;52.230;5.194;2023-05-10T04:16:06;28.95;;;20.90;;
53646;SDS011;39550;52.230;5.194;2023-05-10T04:18:31;31.50;;;19.85;;
53646;SDS011;39550;52.230;5.194;2023-05-10T04:20:57;28.65;;;19.08;;
53646;SDS011;39550;52.230;5.194;2023-05-10T04:23:22;31.25;;;20.58;;
53646;SDS011;39550;52.230;5.194;2023-05-10T04:25:48;33.70;;;20.88;;
53646;SDS011;39550;52.230;5.194;2023-05-10T04:28:13;28.92;;;19.33;;
53646;SDS011;39550;52.230;5.194;2023-05-10T04:30:39;31.60;;;21.90;;
53646;SDS011;39550;52.230;5.194;2023-05-10T04:33:05;32.85;;;21.35;;
53646;SDS011;39550;52.230;5.194;2023-05-10T04:35:31;31.83;;;21.15;;
53646;SDS011;39550;52.230;5.194;2023-05-10T04:37:56;30.30;;;21.23;;
53646;SDS011;39550;52.230;5.194;2023-05-10T04:40:21;31.17;;;21.00;;
53646;SDS011;39550;52.230;5.194;2023-05-10T04:42:46;32.55;;;20.63;;
53646;SDS011;39550;52.230;5.194;2023-05-10T04:45:12;30.02;;;20.35;;
53646;SDS011;39550;52.230;5.194;2023-05-10T04:47:39;31.10;;;21.35;;
53646;SDS011;39550;52.230;5.194;2023-05-10T04:50:05;28.13;;;19.88;;
53646;SDS011;39550;52.230;5.194;2023-05-10T04:52:31;31.50;;;21.35;;
53646;SDS011;39550;52.230;5.194;2023-05-10T04:54:56;31.33;;;20.70;;
53646;SDS011;39550;52.230;5.194;2023-05-10T04:57:21;33.88;;;21.83;;
53646;SDS011;39550;52.230;5.194;2023-05-10T04:59:47;29.95;;;19.60;;
53646;SDS011;39550;52.230;5.194;2023-05-10T05:02:12;30.63;;;20.27;;
53646;SDS011;39550;52.230;5.194;2023-05-10T05:04:38;31.75;;;19.15;;
53646;SDS011;39550;52.230;5.194;2023-05-10T05:07:03;33.50;;;20.63;;
53646;SDS011;39550;52.230;5.194;2023-05-10T05:09:28;33.53;;;20.20;;
53646;SDS011;39550;52.230;5.194;2023-05-10T05:11:54;33.13;;;21.92;;
53646;SDS011;39550;52.230;5.194;2023-05-10T05:14:19;30.33;;;21.25;;
53646;SDS011;39550;52.230;5.194;2023-05-10T05:16:45;33.00;;;21.58;;
53646;SDS011;39550;52.230;5.194;2023-05-10T05:19:11;30.45;;;20.45;;
53646;SDS011;39550;52.230;5.194;2023-05-10T05:21:36;30.95;;;20.85;;
53646;SDS011;39550;52.230;5.194;2023-05-10T05:24:02;31.10;;;20.13;;
53646;SDS011;39550;52.230;5.194;2023-05-10T05:26:27;31.23;;;20.35;;
53646;SDS011;39550;52.230;5.194;2023-05-10T05:28:53;31.17;;;20.17;;
53646;SDS011;39550;52.230;5.194;2023-05-10T05:31:19;29.95;;;20.40;;
53646;SDS011;39550;52.230;5.194;2023-05-10T05:33:45;31.85;;;20.67;;
53646;SDS011;39550;52.230;5.194;2023-05-10T05:36:10;28.80;;;19.25;;
53646;SDS011;39550;52.230;5.194;2023-05-10T05:38:35;26.50;;;19.83;;
53646;SDS011;39550;52.230;5.194;2023-05-10T05:41:01;29.90;;;20.30;;
53646;SDS011;39550;52.230;5.194;2023-05-10T05:43:27;29.80;;;19.23;;
53646;SDS011;39550;52.230;5.194;2023-05-10T05:45:52;28.02;;;18.48;;
53646;SDS011;39550;52.230;5.194;2023-05-10T05:48:18;27.60;;;18.60;;
53646;SDS011;39550;52.230;5.194;2023-05-10T05:50:44;29.92;;;18.95;;
53646;SDS011;39550;52.230;5.194;2023-05-10T05:53:10;25.67;;;17.65;;
53646;SDS011;39550;52.230;5.194;2023-05-10T05:55:35;25.85;;;18.40;;
53646;SDS011;39550;52.230;5.194;2023-05-10T05:58:01;28.90;;;19.63;;
53646;SDS011;39550;52.230;5.194;2023-05-10T06:00:26;29.40;;;19.17;;
53646;SDS011;39550;52.230;5.194;2023-05-10T06:02:51;29.10;;;19.60;;
53646;SDS011;39550;52.230;5.194;2023-05-10T06:05:17;26.60;;;17.15;;
53646;SDS011;39550;52.230;5.194;2023-05-10T06:07:42;28.15;;;17.98;;
53646;SDS011;39550;52.230;5.194;2023-05-10T06:10:08;25.88;;;17.23;;
53646;SDS011;39550;52.230;5.194;2023-05-10T06:12:34;26.85;;;17.50;;
53646;SDS011;39550;52.230;5.194;2023-05-10T06:14:59;23.25;;;16.67;;
53646;SDS011;39550;52.230;5.194;2023-05-10T06:17:25;25.67;;;17.50;;
53646;SDS011;39550;52.230;5.194;2023-05-10T06:19:50;24.77;;;16.88;;
53646;SDS011;39550;52.230;5.194;2023-05-10T06:22:15;22.02;;;15.00;;
53646;SDS011;39550;52.230;5.194;2023-05-10T06:24:41;24.05;;;16.42;;
53646;SDS011;39550;52.230;5.194;2023-05-10T06:27:06;25.30;;;16.13;;
53646;SDS011;39550;52.230;5.194;2023-05-10T06:29:32;23.75;;;15.80;;
53646;SDS011;39550;52.230;5.194;2023-05-10T06:31:57;21.25;;;14.38;;
53646;SDS011;39550;52.230;5.194;2023-05-10T06:34:23;23.75;;;15.48;;
53646;SDS011;39550;52.230;5.194;2023-05-10T06:36:49;24.88;;;15.70;;
53646;SDS011;39550;52.230;5.194;2023-05-10T06:39:14;24.08;;;16.05;;
53646;SDS011;39550;52.230;5.194;2023-05-10T06:41:39;22.00;;;14.35;;
53646;SDS011;39550;52.230;5.194;2023-05-10T06:44:05;23.55;;;15.35;;
53646;SDS011;39550;52.230;5.194;2023-05-10T06:46:30;26.17;;;16.15;;
53646;SDS011;39550;52.230;5.194;2023-05-10T06:48:56;22.58;;;15.75;;
53646;SDS011;39550;52.230;5.194;2023-05-10T06:51:21;24.85;;;15.68;;
53646;SDS011;39550;52.230;5.194;2023-05-10T06:53:46;22.77;;;13.60;;
53646;SDS011;39550;52.230;5.194;2023-05-10T06:56:12;23.50;;;14.73;;
53646;SDS011;39550;52.230;5.194;2023-05-10T06:58:37;25.15;;;15.52;;
53646;SDS011;39550;52.230;5.194;2023-05-10T07:01:03;20.77;;;13.82;;
53646;SDS011;39550;52.230;5.194;2023-05-10T07:03:30;23.80;;;14.52;;
53646;SDS011;39550;52.230;5.194;2023-05-10T07:05:59;21.27;;;14.20;;
53646;SDS011;39550;52.230;5.194;2023-05-10T07:08:31;21.90;;;14.30;;
53646;SDS011;39550;52.230;5.194;2023-05-10T07:11:05;23.30;;;14.05;;
53646;SDS011;39550;52.230;5.194;2023-05-10T07:13:35;20.98;;;12.85;;
53646;SDS011;39550;52.230;5.194;2023-05-10T07:16:01;22.15;;;14.80;;
53646;SDS011;39550;52.230;5.194;2023-05-10T07:18:27;19.58;;;13.60;;
53646;SDS011;39550;52.230;5.194;2023-05-10T07:20:52;23.40;;;14.60;;
53646;SDS011;39550;52.230;5.194;2023-05-10T07:23:18;21.95;;;14.43;;
53646;SDS011;39550;52.230;5.194;2023-05-10T07:25:44;21.58;;;14.32;;
53646;SDS011;39550;52.230;5.194;2023-05-10T07:28:11;22.20;;;14.27;;
53646;SDS011;39550;52.230;5.194;2023-05-10T07:30:36;19.40;;;13.68;;
53646;SDS011;39550;52.230;5.194;2023-05-10T07:33:01;19.23;;;12.75;;
53646;SDS011;39550;52.230;5.194;2023-05-10T07:35:27;22.85;;;14.02;;
53646;SDS011;39550;52.230;5.194;2023-05-10T07:37:52;18.13;;;12.48;;
53646;SDS011;39550;52.230;5.194;2023-05-10T07:40:18;21.02;;;13.20;;
53646;SDS011;39550;52.230;5.194;2023-05-10T07:42:43;19.13;;;13.05;;
53646;SDS011;39550;52.230;5.194;2023-05-10T07:45:08;20.83;;;12.48;;
53646;SDS011;39550;52.230;5.194;2023-05-10T07:47:34;22.35;;;13.18;;
53646;SDS011;39550;52.230;5.194;2023-05-10T07:49:59;20.63;;;12.73;;
53646;SDS011;39550;52.230;5.194;2023-05-10T07:52:25;18.95;;;12.63;;
53646;SDS011;39550;52.230;5.194;2023-05-10T07:54:50;17.27;;;11.73;;
53646;SDS011;39550;52.230;5.194;2023-05-10T07:57:16;20.25;;;12.82;;
53646;SDS011;39550;52.230;5.194;2023-05-10T07:59:43;19.40;;;13.02;;
53646;SDS011;39550;52.230;5.194;2023-05-10T08:02:09;16.85;;;12.10;;
53646;SDS011;39550;52.230;5.194;2023-05-10T08:04:34;19.27;;;12.82;;
53646;SDS011;39550;52.230;5.194;2023-05-10T08:07:00;18.38;;;12.32;;
53646;SDS011;39550;52.230;5.194;2023-05-10T08:09:25;17.40;;;11.95;;
53646;SDS011;39550;52.230;5.194;2023-05-10T08:11:50;18.13;;;12.18;;
53646;SDS011;39550;52.230;5.194;2023-05-10T08:14:16;20.65;;;14.05;;
53646;SDS011;39550;52.230;5.194;2023-05-10T08:16:41;17.10;;;11.90;;
53646;SDS011;39550;52.230;5.194;2023-05-10T08:19:07;15.98;;;11.32;;
53646;SDS011;39550;52.230;5.194;2023-05-10T08:21:32;18.85;;;12.15;;
53646;SDS011;39550;52.230;5.194;2023-05-10T08:23:57;17.17;;;12.07;;
53646;SDS011;39550;52.230;5.194;2023-05-10T08:26:23;17.48;;;12.27;;
53646;SDS011;39550;52.230;5.194;2023-05-10T08:28:48;17.52;;;11.52;;
53646;SDS011;39550;52.230;5.194;2023-05-10T08:31:14;14.75;;;10.43;;
53646;SDS011;39550;52.230;5.194;2023-05-10T08:33:39;15.18;;;10.80;;
53646;SDS011;39550;52.230;5.194;2023-05-10T08:36:05;14.98;;;10.68;;
53646;SDS011;39550;52.230;5.194;2023-05-10T08:38:30;17.98;;;11.75;;
53646;SDS011;39550;52.230;5.194;2023-05-10T08:40:55;15.63;;;11.32;;
53646;SDS011;39550;52.230;5.194;2023-05-10T08:43:21;14.02;;;10.75;;
53646;SDS011;39550;52.230;5.194;2023-05-10T08:45:51;15.10;;;10.40;;
53646;SDS011;39550;52.230;5.194;2023-05-10T08:48:18;18.08;;;10.75;;
53646;SDS011;39550;52.230;5.194;2023-05-10T08:50:46;17.15;;;10.05;;
53646;SDS011;39550;52.230;5.194;2023-05-10T08:53:13;16.08;;;10.80;;
53646;SDS011;39550;52.230;5.194;2023-05-10T08:55:40;14.45;;;10.30;;
53646;SDS011;39550;52.230;5.194;2023-05-10T08:58:07;15.60;;;10.80;;
53646;SDS011;39550;52.230;5.194;2023-05-10T09:00:34;14.75;;;9.73;;
53646;SDS011;39550;52.230;5.194;2023-05-10T09:03:00;14.05;;;9.80;;
53646;SDS011;39550;52.230;5.194;2023-05-10T09:05:27;14.07;;;9.95;;
53646;SDS011;39550;52.230;5.194;2023-05-10T09:07:53;15.18;;;9.73;;
53646;SDS011;39550;52.230;5.194;2023-05-10T09:10:18;14.40;;;9.55;;
53646;SDS011;39550;52.230;5.194;2023-05-10T09:12:44;13.77;;;9.98;;
53646;SDS011;39550;52.230;5.194;2023-05-10T09:15:10;16.20;;;10.20;;
53646;SDS011;39550;52.230;5.194;2023-05-10T09:17:36;15.07;;;9.82;;
53646;SDS011;39550;52.230;5.194;2023-05-10T09:20:05;13.13;;;9.10;;
53646;SDS011;39550;52.230;5.194;2023-05-10T09:22:31;14.88;;;9.05;;
53646;SDS011;39550;52.230;5.194;2023-05-10T09:27:32;12.20;;;8.68;;
53646;SDS011;39550;52.230;5.194;2023-05-10T09:29:58;13.13;;;9.30;;
53646;SDS011;39550;52.230;5.194;2023-05-10T09:32:42;12.68;;;8.90;;
53646;SDS011;39550;52.230;5.194;2023-05-10T09:35:10;11.77;;;8.50;;
53646;SDS011;39550;52.230;5.194;2023-05-10T09:37:36;13.82;;;9.05;;
53646;SDS011;39550;52.230;5.194;2023-05-10T09:40:06;11.88;;;8.68;;
53646;SDS011;39550;52.230;5.194;2023-05-10T09:42:33;13.02;;;9.00;;
53646;SDS011;39550;52.230;5.194;2023-05-10T09:45:05;11.55;;;8.60;;
53646;SDS011;39550;52.230;5.194;2023-05-10T09:47:32;13.27;;;8.73;;
53646;SDS011;39550;52.230;5.194;2023-05-10T09:49:59;12.23;;;8.50;;
53646;SDS011;39550;52.230;5.194;2023-05-10T09:55:23;13.40;;;9.27;;
53646;SDS011;39550;52.230;5.194;2023-05-10T09:57:58;13.75;;;8.98;;
53646;SDS011;39550;52.230;5.194;2023-05-10T10:00:25;11.90;;;8.10;;
53646;SDS011;39550;52.230;5.194;2023-05-10T10:02:55;11.07;;;7.45;;
53646;SDS011;39550;52.230;5.194;2023-05-10T10:05:27;11.75;;;7.88;;
53646;SDS011;39550;52.230;5.194;2023-05-10T10:08:01;10.70;;;8.00;;
53646;SDS011;39550;52.230;5.194;2023-05-10T10:10:28;13.50;;;8.43;;
53646;SDS011;39550;52.230;5.194;2023-05-10T10:12:55;11.05;;;7.95;;
53646;SDS011;39550;52.230;5.194;2023-05-10T10:15:21;11.02;;;7.32;;
53646;SDS011;39550;52.230;5.194;2023-05-10T10:17:48;9.88;;;6.82;;
53646;SDS011;39550;52.230;5.194;2023-05-10T10:20:14;10.20;;;7.75;;
53646;SDS011;39550;52.230;5.194;2023-05-10T10:22:40;9.93;;;7.50;;
53646;SDS011;39550;52.230;5.194;2023-05-10T10:25:05;9.73;;;6.88;;
53646;SDS011;39550;52.230;5.194;2023-05-10T10:36:07;9.73;;;7.25;;
53646;SDS011;39550;52.230;5.194;2023-05-10T10:39:15;9.63;;;7.50;;
53646;SDS011;39550;52.230;5.194;2023-05-10T10:41:29;10.57;;;6.85;;
53646;SDS011;39550;52.230;5.194;2023-05-10T10:49:24;11.00;;;6.93;;
53646;SDS011;39550;52.230;5.194;2023-05-10T10:54:52;12.13;;;6.90;;
53646;SDS011;39550;52.230;5.194;2023-05-10T10:57:21;9.80;;;6.47;;
53646;SDS011;39550;52.230;5.194;2023-05-10T10:59:47;11.43;;;6.47;;
53646;SDS011;39550;52.230;5.194;2023-05-10T11:07:53;9.20;;;6.30;;
53646;SDS011;39550;52.230;5.194;2023-05-10T11:10:23;9.38;;;6.57;;
53646;SDS011;39550;52.230;5.194;2023-05-10T11:15:29;9.90;;;6.00;;
53646;SDS011;39550;52.230;5.194;2023-05-10T11:17:55;8.93;;;5.68;;
53646;SDS011;39550;52.230;5.194;2023-05-10T11:20:21;9.07;;;6.13;;
53646;SDS011;39550;52.230;5.194;2023-05-10T11:22:52;7.65;;;5.68;;
53646;SDS011;39550;52.230;5.194;2023-05-10T11:25:19;8.10;;;5.93;;
53646;SDS011;39550;52.230;5.194;2023-05-10T11:27:45;7.07;;;5.32;;
53646;SDS011;39550;52.230;5.194;2023-05-10T11:30:12;10.65;;;5.97;;
53646;SDS011;39550;52.230;5.194;2023-05-10T11:32:40;8.27;;;5.50;;
53646;SDS011;39550;52.230;5.194;2023-05-10T11:35:09;8.75;;;5.60;;
53646;SDS011;39550;52.230;5.194;2023-05-10T11:37:35;7.47;;;5.50;;
53646;SDS011;39550;52.230;5.194;2023-05-10T11:40:01;9.23;;;5.82;;
53646;SDS011;39550;52.230;5.194;2023-05-10T11:42:27;8.15;;;5.32;;
53646;SDS011;39550;52.230;5.194;2023-05-10T11:44:53;7.97;;;5.47;;
53646;SDS011;39550;52.230;5.194;2023-05-10T11:47:18;7.78;;;5.45;;
53646;SDS011;39550;52.230;5.194;2023-05-10T11:49:44;7.90;;;5.07;;
53646;SDS011;39550;52.230;5.194;2023-05-10T11:52:10;8.07;;;5.53;;
53646;SDS011;39550;52.230;5.194;2023-05-10T11:54:44;9.20;;;5.97;;
53646;SDS011;39550;52.230;5.194;2023-05-10T11:57:17;8.32;;;5.25;;
53646;SDS011;39550;52.230;5.194;2023-05-10T11:59:45;7.00;;;5.22;;
53646;SDS011;39550;52.230;5.194;2023-05-10T12:02:11;8.13;;;5.32;;
53646;SDS011;39550;52.230;5.194;2023-05-10T12:07:06;8.45;;;5.43;;
53646;SDS011;39550;52.230;5.194;2023-05-10T12:09:31;7.20;;;5.40;;
53646;SDS011;39550;52.230;5.194;2023-05-10T12:11:56;7.43;;;5.20;;
53646;SDS011;39550;52.230;5.194;2023-05-10T12:14:22;7.45;;;4.85;;
53646;SDS011;39550;52.230;5.194;2023-05-10T12:16:47;8.40;;;5.15;;
53646;SDS011;39550;52.230;5.194;2023-05-10T12:19:13;6.93;;;5.15;;
53646;SDS011;39550;52.230;5.194;2023-05-10T12:21:44;7.25;;;4.90;;
53646;SDS011;39550;52.230;5.194;2023-05-10T12:24:09;9.02;;;5.20;;
53646;SDS011;39550;52.230;5.194;2023-05-10T12:26:35;8.25;;;5.18;;
53646;SDS011;39550;52.230;5.194;2023-05-10T12:31:54;6.50;;;4.57;;
53646;SDS011;39550;52.230;5.194;2023-05-10T12:34:31;8.98;;;4.88;;
53646;SDS011;39550;52.230;5.194;2023-05-10T12:36:58;7.20;;;5.03;;
53646;SDS011;39550;52.230;5.194;2023-05-10T12:39:24;7.10;;;4.78;;
53646;SDS011;39550;52.230;5.194;2023-05-10T12:41:50;6.78;;;4.70;;
53646;SDS011;39550;52.230;5.194;2023-05-10T12:44:15;6.35;;;4.50;;
53646;SDS011;39550;52.230;5.194;2023-05-10T12:46:41;6.93;;;4.32;;
53646;SDS011;39550;52.230;5.194;2023-05-10T12:49:07;7.60;;;4.55;;
53646;SDS011;39550;52.230;5.194;2023-05-10T12:51:33;6.57;;;4.22;;
53646;SDS011;39550;52.230;5.194;2023-05-10T12:53:58;7.85;;;4.90;;
53646;SDS011;39550;52.230;5.194;2023-05-10T12:56:23;7.85;;;5.20;;
53646;SDS011;39550;52.230;5.194;2023-05-10T12:58:51;6.25;;;4.57;;
53646;SDS011;39550;52.230;5.194;2023-05-10T13:01:22;7.30;;;4.88;;
53646;SDS011;39550;52.230;5.194;2023-05-10T13:03:48;7.30;;;4.57;;
53646;SDS011;39550;52.230;5.194;2023-05-10T13:06:13;8.32;;;4.53;;
53646;SDS011;39550;52.230;5.194;2023-05-10T13:08:39;6.80;;;4.75;;
53646;SDS011;39550;52.230;5.194;2023-05-10T13:11:05;7.45;;;4.88;;
53646;SDS011;39550;52.230;5.194;2023-05-10T13:13:30;6.93;;;4.75;;
53646;SDS011;39550;52.230;5.194;2023-05-10T13:15:59;6.30;;;4.57;;
53646;SDS011;39550;52.230;5.194;2023-05-10T13:18:24;7.85;;;4.97;;
53646;SDS011;39550;52.230;5.194;2023-05-10T13:20:51;9.05;;;5.45;;
53646;SDS011;39550;52.230;5.194;2023-05-10T13:23:16;7.45;;;5.00;;
53646;SDS011;39550;52.230;5.194;2023-05-10T13:25:41;6.25;;;4.30;;
53646;SDS011;39550;52.230;5.194;2023-05-10T13:28:09;7.90;;;5.55;;
53646;SDS011;39550;52.230;5.194;2023-05-10T13:30:35;10.43;;;5.97;;
53646;SDS011;39550;52.230;5.194;2023-05-10T13:33:00;7.40;;;5.20;;
53646;SDS011;39550;52.230;5.194;2023-05-10T13:35:25;8.10;;;5.13;;
53646;SDS011;39550;52.230;5.194;2023-05-10T13:37:51;8.00;;;5.40;;
53646;SDS011;39550;52.230;5.194;2023-05-10T13:40:18;9.43;;;5.30;;
53646;SDS011;39550;52.230;5.194;2023-05-10T13:42:43;7.85;;;5.03;;
53646;SDS011;39550;52.230;5.194;2023-05-10T13:45:09;7.05;;;5.57;;
53646;SDS011;39550;52.230;5.194;2023-05-10T13:47:37;8.52;;;5.63;;
53646;SDS011;39550;52.230;5.194;2023-05-10T13:50:03;8.40;;;5.57;;
53646;SDS011;39550;52.230;5.194;2023-05-10T13:52:29;9.48;;;5.93;;
53646;SDS011;39550;52.230;5.194;2023-05-10T13:54:54;9.10;;;5.85;;
53646;SDS011;39550;52.230;5.194;2023-05-10T13:57:20;8.70;;;6.13;;
53646;SDS011;39550;52.230;5.194;2023-05-10T13:59:46;10.55;;;6.60;;
53646;SDS011;39550;52.230;5.194;2023-05-10T14:02:11;8.90;;;5.90;;
53646;SDS011;39550;52.230;5.194;2023-05-10T14:04:38;9.70;;;5.80;;
53646;SDS011;39550;52.230;5.194;2023-05-10T14:07:03;8.57;;;5.80;;
53646;SDS011;39550;52.230;5.194;2023-05-10T14:09:28;9.68;;;6.53;;
53646;SDS011;39550;52.230;5.194;2023-05-10T14:11:53;9.43;;;6.30;;
53646;SDS011;39550;52.230;5.194;2023-05-10T14:14:19;8.27;;;6.05;;
53646;SDS011;39550;52.230;5.194;2023-05-10T14:16:44;11.63;;;6.47;;
53646;SDS011;39550;52.230;5.194;2023-05-10T14:19:10;11.43;;;6.50;;
53646;SDS011;39550;52.230;5.194;2023-05-10T14:21:36;9.32;;;6.85;;
53646;SDS011;39550;52.230;5.194;2023-05-10T14:24:01;9.95;;;6.47;;
53646;SDS011;39550;52.230;5.194;2023-05-10T14:26:27;11.35;;;6.85;;
53646;SDS011;39550;52.230;5.194;2023-05-10T14:28:52;9.20;;;6.35;;
53646;SDS011;39550;52.230;5.194;2023-05-10T14:31:18;9.35;;;6.25;;
53646;SDS011;39550;52.230;5.194;2023-05-10T14:33:45;10.70;;;6.57;;
53646;SDS011;39550;52.230;5.194;2023-05-10T14:36:10;9.52;;;5.65;;
53646;SDS011;39550;52.230;5.194;2023-05-10T14:38:36;8.93;;;6.28;;
53646;SDS011;39550;52.230;5.194;2023-05-10T14:41:01;9.98;;;6.60;;
53646;SDS011;39550;52.230;5.194;2023-05-10T14:43:26;11.35;;;6.57;;
53646;SDS011;39550;52.230;5.194;2023-05-10T14:45:52;12.15;;;6.85;;
53646;SDS011;39550;52.230;5.194;2023-05-10T14:48:18;10.68;;;6.88;;
53646;SDS011;39550;52.230;5.194;2023-05-10T14:50:44;10.80;;;6.65;;
53646;SDS011;39550;52.230;5.194;2023-05-10T14:53:10;10.57;;;6.95;;
53646;SDS011;39550;52.230;5.194;2023-05-10T14:55:35;10.48;;;6.57;;
53646;SDS011;39550;52.230;5.194;2023-05-10T14:58:04;9.27;;;6.25;;
53646;SDS011;39550;52.230;5.194;2023-05-10T15:00:29;11.48;;;6.60;;
53646;SDS011;39550;52.230;5.194;2023-05-10T15:02:55;11.20;;;7.43;;
53646;SDS011;39550;52.230;5.194;2023-05-10T15:05:21;8.85;;;6.25;;
53646;SDS011;39550;52.230;5.194;2023-05-10T15:07:47;9.52;;;7.13;;
53646;SDS011;39550;52.230;5.194;2023-05-10T15:10:12;10.25;;;6.72;;
53646;SDS011;39550;52.230;5.194;2023-05-10T15:12:38;10.02;;;6.57;;
53646;SDS011;39550;52.230;5.194;2023-05-10T15:15:06;9.93;;;6.30;;
53646;SDS011;39550;52.230;5.194;2023-05-10T15:17:32;9.80;;;6.55;;
53646;SDS011;39550;52.230;5.194;2023-05-10T15:20:01;9.75;;;6.85;;
53646;SDS011;39550;52.230;5.194;2023-05-10T15:22:32;11.48;;;6.60;;
53646;SDS011;39550;52.230;5.194;2023-05-10T15:24:58;8.95;;;5.97;;
53646;SDS011;39550;52.230;5.194;2023-05-10T15:27:26;13.70;;;7.72;;